Time;durP1;ratioP1;P1;durP2;ratioP2;P2;SDS_P1;SDS_P2;PMS_P1;PMS_P2;Temp;Humidity;BMP_temperature;BMP_pressure;BME280_temperature;BME280_humidity;BME280_pressure;Samples;Min_cycle;Max_cycle;Signal;HPM_P1;HPM_P2
2023/08/26 00:00:23;;;;;;;;;;;;;;;-145.06;100.00;60892.56;4725560;29;19962;-92
2023/08/26 00:03:02;;;;;;;;;;;;;;;-145.06;100.00;60892.56;4738418;29;19919;-92
2023/08/26 00:05:41;;;;;;;;;;;;;;;-145.06;100.00;60892.56;4737107;29;19919;-91
2023/08/26 00:08:19;;;;;;;;;;;;;;;-145.06;100.00;60892.56;4738305;29;19919;-92
2023/08/26 00:10:59;;;;;;;;;;;;;;;-145.06;100.00;60892.56;4720541;29;19915;-91
2023/08/26 00:13:38;;;;;;;;;;;;;;;-145.06;100.00;60892.56;4727043;29;19923;-92
2023/08/26 00:16:17;;;;;;;;;;;;;;;-145.06;100.00;60892.56;4733078;29;19915;-93
2023/08/26 00:18:59;;;;;;;;;;;;;;;-145.06;100.00;60892.56;4733447;29;19915;-92
2023/08/26 00:21:38;;;;;;;;;;;;;;;-145.06;100.00;60892.56;4732975;29;19916;-91
2023/08/26 00:24:17;;;;;;;;;;;;;;;-145.06;100.00;60892.56;4737423;29;19923;-92
2023/08/26 00:26:58;;;;;;;;;;;;;;;-145.06;100.00;60892.56;4738276;29;19919;-90
2023/08/26 00:29:37;;;;;;;;;;;;;;;-145.06;100.00;60892.56;4735971;29;19919;-91
2023/08/26 00:32:16;;;;;;;;;;;;;;;-145.06;100.00;60892.56;4719274;29;19915;-92
2023/08/26 00:34:55;;;;;;;;;;;;;;;-145.06;100.00;60892.56;4719634;29;19923;-91
2023/08/26 00:37:34;;;;;;;;;;;;;;;-145.06;100.00;60892.56;4724812;29;19916;-91
2023/08/26 00:40:13;;;;;;;;;;;;;;;-145.06;100.00;60892.56;4738128;29;19915;-91
2023/08/26 00:42:53;;;;;;;;;;;;;;;-145.06;100.00;60892.56;4741871;29;19958;-91
2023/08/26 00:45:32;;;;;;;;;;;;;;;-145.06;100.00;60892.56;4737495;29;19915;-90
2023/08/26 00:48:12;;;;;;;;;;;;;;;-145.06;100.00;60892.56;4736341;29;19920;-91
2023/08/26 00:50:52;;;;;;;;;;;;;;;-145.06;100.00;60892.56;4728033;29;19986;-92
2023/08/26 00:53:32;;;;;;;;;;;;;;;-145.06;100.00;60892.56;4737551;29;19998;-92
2023/08/26 00:56:14;;;;;;;;;;;;;;;18.19;100.00;60892.56;4736674;29;20262;-92
2023/08/26 00:58:53;;;;;;;;;;;;;;;-145.06;100.00;60892.56;4744277;29;19915;-89
2023/08/26 01:01:32;;;;;;;;;;;;;;;-145.06;100.00;60892.56;4736886;29;20013;-90
2023/08/26 01:04:11;;;;;;;;;;;;;;;-145.06;100.00;60892.56;4736817;29;19915;-90
2023/08/26 01:06:50;;;;;;;;;;;;;;;-145.06;100.00;60892.56;4737941;29;19943;-91
2023/08/26 01:09:29;;;;;;;;;;;;;;;-145.06;100.00;60892.56;4730725;29;19919;-91
2023/08/26 01:12:24;;;;;;;;;;;;;;;-145.06;100.00;60892.56;4752268;29;19923;-92
2023/08/26 01:15:12;;;;;;;;;;;;;;;-145.06;100.00;60892.56;4738239;29;19919;-92
2023/08/26 01:17:51;;;;;;;;;;;;;;;-145.06;100.00;60892.56;4737277;29;19966;-92
2023/08/26 01:20:31;;;;;;;;;;;;;;;-145.06;100.00;60892.56;4748453;29;20250;-92
2023/08/26 01:23:15;;;;;;;;;;;;;;;-145.06;100.00;60892.56;4742729;29;20001;-92
2023/08/26 01:25:54;;;;;;;;;;;;;;;-145.06;100.00;60892.56;4737413;29;19927;-93
2023/08/26 01:28:34;;;;;;;;;;;;;;;-145.06;100.00;60892.56;4751315;29;19920;-90
2023/08/26 01:31:13;;;;;;;;;;;;;;;-145.06;100.00;60892.56;4738098;29;20349;-91
2023/08/26 01:33:57;;;;;;;;;;;;;;;-145.06;100.00;60892.56;4736262;29;19923;-91
2023/08/26 01:36:40;;;;;;;;;;;;;;;-145.06;100.00;60892.56;4733319;29;19915;-90
2023/08/26 01:39:20;;;;;;;;;;;;;;;-145.06;100.00;60892.56;4733599;29;19919;-90
2023/08/26 01:42:00;;;;;;;;;;;;;;;-145.06;100.00;60892.56;4735949;29;19919;-92
2023/08/26 01:44:40;;;;;;;;;;;;;;;-145.06;100.00;60892.56;4740295;29;19919;-91
2023/08/26 01:47:20;;;;;;;;;;;;;;;17.26;100.00;60892.56;4733995;29;19966;-91
2023/08/26 01:49:59;;;;;;;;;;;;;;;-145.06;100.00;60892.56;4739955;29;19919;-91
2023/08/26 01:52:38;;;;;;;;;;;;;;;-145.06;100.00;60892.56;4740134;29;19919;-92
2023/08/26 01:55:17;;;;;;;;;;;;;;;-145.06;100.00;60892.56;4740989;29;19919;-91
2023/08/26 01:57:55;;;;;;;;;;;;;;;-145.06;100.00;60892.56;4740524;29;19923;-90
2023/08/26 02:00:35;;;;;;;;;;;;;;;-145.06;100.00;60892.56;4741029;29;19919;-91
2023/08/26 02:03:14;;;;;;;;;;;;;;;-145.06;100.00;60892.56;4740167;29;19915;-91
2023/08/26 02:05:53;;;;;;;;;;;;;;;-145.06;100.00;60892.56;4741122;29;20421;-92
2023/08/26 02:08:32;;;;;;;;;;;;;;;-145.06;100.00;60892.56;4742668;29;19915;-91
2023/08/26 02:11:11;;;;;;;;;;;;;;;-145.06;100.00;60892.56;4740111;29;20349;-90
2023/08/26 02:13:50;;;;;;;;;;;;;;;-145.06;100.00;60892.56;4760123;29;19987;-92
2023/08/26 02:16:28;;;;;;;;;;;;;;;-145.06;100.00;60892.56;4741235;29;19915;-91
2023/08/26 02:19:07;;;;;;;;;;;;;;;-145.06;100.00;60892.56;4740052;29;19916;-91
2023/08/26 02:21:46;;;;;;;;;;;;;;;-145.06;100.00;60892.56;4740467;29;19920;-91
2023/08/26 02:24:26;;;;;;;;;;;;;;;-145.06;100.00;60892.56;4753117;29;19923;-91
2023/08/26 02:27:05;;;;;;;;;;;;;;;-145.06;100.00;60892.56;4740625;29;19954;-92
2023/08/26 02:29:44;;;;;;;;;;;;;;;-145.06;100.00;60892.56;4740367;29;19919;-92
2023/08/26 02:32:22;;;;;;;;;;;;;;;-145.06;100.00;60892.56;4740283;29;20357;-91
2023/08/26 02:35:01;;;;;;;;;;;;;;;-145.06;100.00;60892.56;4739813;29;19919;-92
2023/08/26 02:37:40;;;;;;;;;;;;;;;-145.06;100.00;60892.56;4740014;29;19915;-92
2023/08/26 02:40:19;;;;;;;;;;;;;;;-145.06;100.00;60892.56;4739941;29;20389;-91
2023/08/26 02:42:58;;;;;;;;;;;;;;;-145.06;100.00;60892.56;4740224;29;19915;-92
2023/08/26 02:45:37;;;;;;;;;;;;;;;-145.06;100.00;60892.56;4749732;29;19919;-90
2023/08/26 02:48:16;;;;;;;;;;;;;;;-145.06;100.00;60892.56;4739916;29;20246;-91
2023/08/26 02:50:58;;;;;;;;;;;;;;;-145.06;100.00;60892.56;4738369;29;19950;-92
2023/08/26 02:53:37;;;;;;;;;;;;;;;-145.06;100.00;60892.56;4735204;29;19969;-92
2023/08/26 02:56:16;;;;;;;;;;;;;;;-145.06;100.00;60892.56;4721632;29;19923;-91
2023/08/26 02:58:55;;;;;;;;;;;;;;;-145.06;100.00;60892.56;4722692;29;19938;-91
2023/08/26 03:01:36;;;;;;;;;;;;;;;-145.06;100.00;60892.56;4739657;29;19915;-92
2023/08/26 03:04:15;;;;;;;;;;;;;;;-145.06;100.00;60892.56;4739305;29;19943;-93
2023/08/26 03:06:54;;;;;;;;;;;;;;;-145.06;100.00;60892.56;4729198;29;20366;-92
2023/08/26 03:09:33;;;;;;;;;;;;;;;-145.06;100.00;60892.56;4730977;29;19919;-91
2023/08/26 03:12:12;;;;;;;;;;;;;;;-145.06;100.00;60892.56;4737176;29;19923;-91
2023/08/26 03:14:52;;;;;;;;;;;;;;;-145.06;100.00;60892.56;4736423;29;20002;-91
2023/08/26 03:17:31;;;;;;;;;;;;;;;-145.06;100.00;60892.56;4739297;29;19919;-91
2023/08/26 03:20:10;;;;;;;;;;;;;;;-145.06;100.00;60892.56;4740126;29;20330;-90
2023/08/26 03:22:49;;;;;;;;;;;;;;;-145.06;100.00;60892.56;4739775;29;19915;-92
2023/08/26 03:25:29;;;;;;;;;;;;;;;-145.06;100.00;60892.56;4738977;29;19919;-91
2023/08/26 03:28:08;;;;;;;;;;;;;;;-145.06;100.00;60892.56;4743223;29;19950;-91
2023/08/26 03:30:47;;;;;;;;;;;;;;;-145.06;100.00;60892.56;4739602;29;20408;-91
2023/08/26 03:33:26;;;;;;;;;;;;;;;-145.06;100.00;60892.56;4739073;29;19919;-90
2023/08/26 03:36:06;;;;;;;;;;;;;;;-145.06;100.00;60892.56;4738900;29;20290;-91
2023/08/26 03:38:45;;;;;;;;;;;;;;;-145.06;100.00;60892.56;4738822;29;20079;-91
2023/08/26 03:41:24;;;;;;;;;;;;;;;-145.06;100.00;60892.56;4752269;29;19923;-91
2023/08/26 03:44:04;;;;;;;;;;;;;;;-145.06;100.00;60892.56;4739833;29;19966;-92
2023/08/26 03:46:52;;;;;;;;;;;;;;;-145.06;100.00;60892.56;4741959;29;19950;-93
2023/08/26 04:05:18;;;;;;;;;;;;;;;-145.06;0.00;60892.56;5314070;22;15814684;-92
2023/08/26 04:08:20;;;;;;;;;;;;;;;-145.06;0.00;60892.56;5989705;23;19931;-92
2023/08/26 04:11:20;;;;;;;;;;;;;;;-145.06;0.00;60892.56;6005895;23;19908;-94
2023/08/26 04:14:12;;;;;;;;;;;;;;;;;;;;;
2023/08/26 04:16:59;;;;;;;;;;;;;;;-145.06;0.00;60892.56;6029036;23;19998;-92
2023/08/26 04:19:44;;;;;;;;;;;;;;;-145.06;0.00;60892.56;6018472;23;19908;-92
2023/08/26 04:22:48;;;;;;;;;;;;;;;-145.06;0.00;60892.56;6018829;23;20336;-94
2023/08/26 04:25:29;;;;;;;;;;;;;;;-145.06;0.00;60892.56;6019216;23;20438;-93
2023/08/26 04:28:11;;;;;;;;;;;;;;;-145.06;0.00;60892.56;6018632;23;19912;-92
2023/08/26 04:31:00;;;;;;;;;;;;;;;-145.06;0.00;60892.56;6017516;23;19908;-93
2023/08/26 04:33:53;;;;;;;;;;;;;;;;;;;;;
2023/08/26 04:36:50;;;;;;;;;;;;;;;-145.06;0.00;60892.56;6028766;23;19908;-94
2023/08/26 04:39:42;;;;;;;;;;;;;;;-145.06;0.00;60892.56;6016325;23;20348;-92
2023/08/26 04:42:35;;;;;;;;;;;;;;;;;;;;;
2023/08/26 04:45:38;;;;;;;;;;;;;;;-145.06;0.00;60892.56;6028834;23;19908;-92
2023/08/26 04:48:31;;;;;;;;;;;;;;;-145.06;0.00;60892.56;6018829;23;20326;-93
2023/08/26 04:51:32;;;;;;;;;;;;;;;-145.06;0.00;60892.56;6017775;23;19908;-93
2023/08/26 04:54:21;;;;;;;;;;;;;;;-145.06;0.00;60892.56;6016586;23;19916;-92
2023/08/26 05:00:40;;;;;;;;;;;;;;;;;;;;;
2023/08/26 05:03:38;;;;;;;;;;;;;;;-145.06;0.00;60892.56;6022225;23;19908;-92
2023/08/26 05:06:26;;;;;;;;;;;;;;;-145.06;0.00;60892.56;6011593;23;19908;-92
2023/08/26 05:09:20;;;;;;;;;;;;;;;-145.06;0.00;60892.56;6011387;23;19912;-93
2023/08/26 05:12:09;;;;;;;;;;;;;;;-145.06;0.00;60892.56;6011844;23;19907;-92
2023/08/26 05:15:31;;;;;;;;;;;;;;;;;;;;;
2023/08/26 05:22:05;;;;;;;;;;;;;;;;;;;;;
2023/08/26 05:24:54;;;;;;;;;;;;;;;-145.06;0.00;60892.56;6021528;23;20398;-93
2023/08/26 05:34:39;;;;;;;;;;;;;;;;;;;;;
2023/08/26 05:41:25;;;;;;;;;;;;;;;-145.06;0.00;60892.56;6021345;23;19908;-92
2023/08/26 05:44:37;;;;;;;;;;;;;;;;;;;;;
2023/08/26 05:47:16;;;;;;;;;;;;;;;-145.06;0.00;60892.56;6015672;23;20362;-91
2023/08/26 05:49:58;;;;;;;;;;;;;;;-145.06;0.00;60892.56;6014490;23;19951;-90
2023/08/26 05:52:37;;;;;;;;;;;;;;;-145.06;0.00;60892.56;6003960;23;19908;-92
2023/08/26 05:55:16;;;;;;;;;;;;;;;15.55;0.00;60892.56;6004073;23;19908;-91
2023/08/26 05:57:54;;;;;;;;;;;;;;;-145.06;0.00;60892.56;6004090;23;19908;-91
2023/08/26 06:00:34;;;;;;;;;;;;;;;-145.06;0.00;60892.56;6005021;23;19908;-91
2023/08/26 06:03:13;;;;;;;;;;;;;;;-145.06;0.00;60892.56;6004259;23;20215;-91
2023/08/26 06:05:52;;;;;;;;;;;;;;;-145.06;0.00;60892.56;6004162;23;19916;-92
2023/08/26 06:08:31;;;;;;;;;;;;;;;-145.06;0.00;60892.56;6004864;23;19916;-91
2023/08/26 06:11:10;;;;;;;;;;;;;;;-145.06;0.00;60892.56;6004501;23;19944;-91
2023/08/26 06:13:49;;;;;;;;;;;;;;;-145.06;0.00;60892.56;6005230;23;19979;-92
2023/08/26 06:16:28;;;;;;;;;;;;;;;-145.06;0.00;60892.56;6004708;23;20354;-91
2023/08/26 06:19:07;;;;;;;;;;;;;;;-145.06;0.00;60892.56;6005295;23;20223;-92
2023/08/26 06:21:46;;;;;;;;;;;;;;;-145.06;0.00;60892.56;6005596;23;19936;-92
2023/08/26 06:24:25;;;;;;;;;;;;;;;-145.06;0.00;60892.56;6005318;23;19982;-91
2023/08/26 06:27:06;;;;;;;;;;;;;;;-145.06;0.00;60892.56;6005103;23;19912;-91
2023/08/26 06:29:51;;;;;;;;;;;;;;;-145.06;0.00;60892.56;6005375;23;19912;-91
2023/08/26 06:32:30;;;;;;;;;;;;;;;-145.06;0.00;60892.56;6005137;23;19908;-91
2023/08/26 06:35:09;;;;;;;;;;;;;;;-145.06;0.00;60892.56;6005705;23;19907;-93
2023/08/26 06:37:48;;;;;;;;;;;;;;;-145.06;0.00;60892.56;6003688;23;19931;-91
2023/08/26 06:40:30;;;;;;;;;;;;;;;-145.06;0.00;60892.56;6004425;23;20443;-90
2023/08/26 06:43:10;;;;;;;;;;;;;;;-145.06;0.00;60892.56;6004002;23;19933;-91
2023/08/26 06:45:49;;;;;;;;;;;;;;;-145.06;0.00;60892.56;6001341;23;19908;-91
2023/08/26 06:48:28;;;;;;;;;;;;;;;-145.06;0.00;60892.56;6002233;23;19939;-92
2023/08/26 06:51:08;;;;;;;;;;;;;;;16.53;0.00;60892.56;6002705;23;19912;-90
2023/08/26 06:53:46;;;;;;;;;;;;;;;187.52;0.00;60892.56;6001585;23;19908;-91
2023/08/26 06:56:25;;;;;;;;;;;;;;;-145.06;0.00;60892.56;6001770;23;19912;-91
2023/08/26 06:59:04;;;;;;;;;;;;;;;-145.06;0.00;60892.56;6001424;23;19908;-91
2023/08/26 07:01:44;;;;;;;;;;;;;;;-145.06;0.00;60892.56;6000859;23;19915;-92
2023/08/26 07:04:26;;;;;;;;;;;;;;;-145.06;0.00;60892.56;6002047;23;20204;-92
2023/08/26 07:07:05;;;;;;;;;;;;;;;-145.06;0.00;60892.56;6000635;23;19908;-92
2023/08/26 07:09:44;;;;;;;;;;;;;;;-145.06;0.00;60892.56;6000957;23;19912;-90
2023/08/26 07:12:23;;;;;;;;;;;;;;;-145.06;0.00;60892.56;6002025;23;19929;-91
2023/08/26 07:15:03;;;;;;;;;;;;;;;-145.06;0.00;60892.56;6002065;23;20458;-89
2023/08/26 07:17:42;;;;;;;;;;;;;;;-145.06;0.00;60892.56;6003170;23;19956;-91
2023/08/26 07:23:44;;;;;;;;;;;;;;;;;;;;;
2023/08/26 07:26:37;;;;;;;;;;;;;;;-145.06;0.00;60892.56;6018067;23;19912;-92
2023/08/26 07:29:29;;;;;;;;;;;;;;;;;;;;;
2023/08/26 07:33:08;;;;;;;;;;;;;;;-145.06;0.00;60892.56;6020588;23;19908;-92
2023/08/26 07:36:09;;;;;;;;;;;;;;;-145.06;0.00;60892.56;5921181;23;20344;-92
2023/08/26 07:49:05;;;;;;;;;;;;;;;;;;;;;
2023/08/26 07:52:18;;;;;;;;;;;;;;;;;;;;;
2023/08/26 07:55:17;;;;;;;;;;;;;;;;;;;;;
2023/08/26 08:05:26;;;;;;;;;;;;;;;-145.06;0.00;60892.56;5959708;23;20347;-92
2023/08/26 08:12:21;;;;;;;;;;;;;;;;;;;;;
2023/08/26 17:27:17;;;;;;;;;;;;;;;-145.06;0.00;60892.56;6032182;22;19938;-91
2023/08/26 19:54:35;;;;;;;;;;;;;;;-145.06;0.00;60892.56;6074912;22;19919;-92
2023/08/26 20:01:08;;;;;;;;;;;;;;;-145.06;0.00;60892.56;6046344;23;20306;-95
